Main page
METAR-TAF:

METAR-TAF

Airports :

Beech River Regional Airport

Parsons, Tennessee, United States

latitude: 35-39-23N, longitude: 088-11-43W, elevation: 489 ft

Current weather observation

The report was made 24 minutes ago, at 11:35 UTC
Calm wind
Temperature 37°F
Humidity 75%
Pressure 30.23 in. Hg
Visibility: 10 miles
Overcast at a height of 8500 ft

METAR: KPVE 231135Z AUTO 00000KT 10SM OVC085 03/M01 A3023 RMK A01

Time: 05:59 (11:59 UTC)


TAF: missing

Weather observations and forecasts of more than 4000 airports (METAR and TAF reports).

The available stations are represented by yellow and red dots on the map.

Hover mouse over dot to see the name of the station.

Then click to see weather observations and forecasts.

To change the map : click on the green buttons with a black cross to zoom in, on the green button with a dash to zoom out, or on the green arrows for adjacent maps.


METAR-TAF: